Terminal Aerodrome Forecast
Issued by NWS

Home | Current Version | Previous Version | Text Only | Print | Product List | Glossary On
Versions: 1 2 3 4 5 6 7 8 9 10 11 12 13 14 15 16 17 18 19 20 21 22
000
FTUS44 KTSA 301500 AAB
TAFRVS
TAF AMD
KRVS 301533Z 3016/3112 33010KT P6SM SCT007 OVC015
      TEMPO 3016/3018 2SM BR BKN009
     FM301800 34010KT P6SM BKN015
     FM302000 36005KT P6SM BKN050
     FM310900 34003KT P6SM SCT250=

USA.gov is the U.S. government's official web portal to all federal, state and local government web resources and services.